createdAt,value
2018-07-26T00:00:09.985Z,21.90
2018-07-26T00:02:38.455Z,21.80
2018-07-26T00:05:06.981Z,21.80
2018-07-26T00:07:35.723Z,21.80
2018-07-26T00:10:05.135Z,21.90
2018-07-26T00:12:33.530Z,22.00
2018-07-26T00:15:02.102Z,21.90
2018-07-26T00:17:30.492Z,21.80
2018-07-26T00:19:58.893Z,21.70
2018-07-26T00:22:27.415Z,21.70
2018-07-26T00:24:55.857Z,21.70
2018-07-26T00:27:24.232Z,21.70
2018-07-26T00:29:52.657Z,21.80
2018-07-26T00:32:21.080Z,21.90
2018-07-26T00:34:49.468Z,22.00
2018-07-26T00:37:18.080Z,22.00
2018-07-26T00:39:46.631Z,22.10
2018-07-26T00:42:15.287Z,22.20
2018-07-26T00:44:43.721Z,22.20
2018-07-26T00:47:12.250Z,22.20
2018-07-26T00:49:40.850Z,22.20
2018-07-26T00:52:09.294Z,22.20
2018-07-26T00:54:37.693Z,22.10
2018-07-26T00:57:06.297Z,22.20
2018-07-26T00:59:34.688Z,22.10
2018-07-26T01:02:03.099Z,22.00
2018-07-26T01:04:31.764Z,21.70
2018-07-26T01:07:00.168Z,21.60
2018-07-26T01:09:28.677Z,21.50
2018-07-26T01:11:57.309Z,21.30
2018-07-26T01:14:25.705Z,21.20
2018-07-26T01:16:54.208Z,21.10
2018-07-26T01:19:22.608Z,21.20
2018-07-26T01:21:50.996Z,21.20
2018-07-26T01:24:19.432Z,21.20
2018-07-26T01:26:47.836Z,21.10
2018-07-26T01:29:18.806Z,21.10
2018-07-26T01:31:47.700Z,21.00
2018-07-26T01:34:16.085Z,21.00
2018-07-26T01:36:44.524Z,21.10
2018-07-26T01:39:12.916Z,21.10
2018-07-26T01:41:41.369Z,21.10
2018-07-26T01:44:17.900Z,21.10
2018-07-26T01:46:46.602Z,21.10
2018-07-26T01:49:14.992Z,21.20
2018-07-26T01:51:43.517Z,21.20
2018-07-26T01:54:11.944Z,21.40
2018-07-26T01:56:40.347Z,21.40
2018-07-26T01:59:08.843Z,21.50
2018-07-26T02:01:37.474Z,21.50
2018-07-26T02:04:05.896Z,21.60
2018-07-26T02:06:34.471Z,21.50
2018-07-26T02:09:03.313Z,21.40
2018-07-26T02:11:31.733Z,21.40
2018-07-26T02:14:00.104Z,21.30
2018-07-26T02:16:28.537Z,21.30
2018-07-26T02:18:56.961Z,21.20
2018-07-26T02:21:25.385Z,21.10
2018-07-26T02:23:53.765Z,21.00
2018-07-26T02:26:22.374Z,21.00
2018-07-26T02:28:50.782Z,21.00
2018-07-26T02:31:19.429Z,21.10
2018-07-26T02:33:48.128Z,21.10
2018-07-26T02:38:44.993Z,21.00
2018-07-26T02:41:13.429Z,21.00
2018-07-26T02:43:41.837Z,21.00
2018-07-26T02:46:10.525Z,21.00
2018-07-26T02:48:38.912Z,20.90
2018-07-26T02:51:07.330Z,20.90
2018-07-26T02:53:36.006Z,20.90
2018-07-26T02:56:04.417Z,20.80
2018-07-26T02:58:32.871Z,20.70
2018-07-26T03:01:01.706Z,20.70
2018-07-26T03:03:30.130Z,20.70
2018-07-26T03:05:58.525Z,20.70
2018-07-26T03:08:26.977Z,20.70
2018-07-26T03:10:55.381Z,20.70
2018-07-26T03:13:23.808Z,20.60
2018-07-26T03:15:52.213Z,20.70
2018-07-26T03:18:20.739Z,20.70
2018-07-26T03:20:49.582Z,20.60
2018-07-26T03:23:17.954Z,20.50
2018-07-26T03:28:14.506Z,20.20
2018-07-26T03:30:43.125Z,20.10
2018-07-26T03:33:11.739Z,20.00
2018-07-26T03:35:40.150Z,20.00
2018-07-26T03:38:08.574Z,20.10
2018-07-26T03:40:36.984Z,20.10
2018-07-26T03:43:05.377Z,20.10
2018-07-26T03:45:33.908Z,20.00
2018-07-26T03:48:02.635Z,19.90
2018-07-26T03:50:31.032Z,20.00
2018-07-26T03:52:59.450Z,19.90
2018-07-26T03:55:27.856Z,19.90
2018-07-26T03:57:56.757Z,19.80
2018-07-26T04:00:25.088Z,19.90
2018-07-26T04:02:53.534Z,20.00
2018-07-26T04:05:21.925Z,19.90
2018-07-26T04:07:50.358Z,19.90
2018-07-26T04:10:19.153Z,19.80
2018-07-26T04:12:47.536Z,19.70
2018-07-26T04:15:15.980Z,19.60
2018-07-26T04:17:44.801Z,19.70
2018-07-26T04:20:13.196Z,19.60
2018-07-26T04:22:41.780Z,19.70
2018-07-26T04:25:10.204Z,19.70
2018-07-26T04:27:38.720Z,19.70
2018-07-26T04:30:07.145Z,19.70
2018-07-26T04:32:35.560Z,19.90
2018-07-26T04:35:04.036Z,20.00
2018-07-26T04:37:32.449Z,19.90
2018-07-26T04:40:00.916Z,20.00
2018-07-26T04:42:29.477Z,20.00
2018-07-26T04:44:57.975Z,20.00
2018-07-26T04:47:26.384Z,20.20
2018-07-26T04:49:54.792Z,20.40
2018-07-26T04:52:23.273Z,20.70
2018-07-26T04:54:51.696Z,20.80
2018-07-26T04:57:20.084Z,21.00
2018-07-26T05:04:44.728Z,21.60
2018-07-26T05:07:13.116Z,21.80
2018-07-26T05:09:41.703Z,22.00
2018-07-26T05:12:10.180Z,21.90
2018-07-26T05:14:38.588Z,22.20
2018-07-26T05:17:07.336Z,22.60
2018-07-26T05:19:35.722Z,23.30
2018-07-26T05:22:04.209Z,23.90
2018-07-26T05:24:32.757Z,24.30
2018-07-26T05:27:01.185Z,24.90
2018-07-26T05:29:29.677Z,25.20
2018-07-26T05:31:58.148Z,25.50
2018-07-26T05:34:26.534Z,25.90
2018-07-26T05:36:54.920Z,26.30
2018-07-26T05:39:23.358Z,26.20
2018-07-26T05:41:51.768Z,26.50
2018-07-26T05:44:20.669Z,26.70
2018-07-26T05:46:49.056Z,26.40
2018-07-26T05:49:17.464Z,26.20
2018-07-26T05:51:45.860Z,25.70
2018-07-26T05:54:14.273Z,25.10
2018-07-26T05:56:42.766Z,24.60
2018-07-26T06:01:49.466Z,24.50
2018-07-26T06:04:17.881Z,24.20
2018-07-26T06:06:46.305Z,24.20
2018-07-26T06:09:14.712Z,24.30
2018-07-26T06:11:43.116Z,24.30
2018-07-26T06:14:11.599Z,24.40
2018-07-26T06:16:40.244Z,24.60
2018-07-26T06:19:08.649Z,24.80
2018-07-26T06:21:37.053Z,24.70
2018-07-26T06:24:05.817Z,24.70
2018-07-26T06:26:34.246Z,24.80
2018-07-26T06:29:02.683Z,25.00
2018-07-26T06:31:31.081Z,25.10
2018-07-26T06:33:59.491Z,25.20
2018-07-26T06:36:27.931Z,25.20
2018-07-26T06:38:56.391Z,25.30
2018-07-26T06:41:24.781Z,25.30
2018-07-26T06:43:53.222Z,25.20
2018-07-26T06:46:21.809Z,25.10
2018-07-26T06:48:50.260Z,25.10
2018-07-26T06:51:19.041Z,25.20
2018-07-26T06:53:47.608Z,25.40
2018-07-26T06:56:16.009Z,25.70
2018-07-26T06:58:44.409Z,26.00
2018-07-26T07:01:12.824Z,26.00
2018-07-26T07:03:41.244Z,26.10
2018-07-26T07:06:09.641Z,26.20
2018-07-26T07:08:38.264Z,26.30
2018-07-26T07:11:06.672Z,26.20
2018-07-26T07:13:35.127Z,26.20
2018-07-26T07:16:03.605Z,26.20
2018-07-26T07:18:31.991Z,26.20
2018-07-26T07:21:00.381Z,26.20
2018-07-26T07:23:28.808Z,26.30
2018-07-26T07:25:57.219Z,26.50
2018-07-26T07:28:25.652Z,26.70
2018-07-26T07:30:54.307Z,26.70
2018-07-26T07:33:22.720Z,26.90
2018-07-26T07:35:51.140Z,27.20
2018-07-26T07:38:19.558Z,27.30
2018-07-26T07:40:47.955Z,27.30
2018-07-26T07:43:16.388Z,27.50
2018-07-26T07:45:44.873Z,27.70
2018-07-26T07:48:13.260Z,27.70
2018-07-26T07:50:41.653Z,27.60
2018-07-26T07:53:10.141Z,27.70
2018-07-26T07:55:38.581Z,27.80
2018-07-26T07:58:06.998Z,27.90
2018-07-26T08:00:35.450Z,27.90
2018-07-26T08:03:03.918Z,28.10
2018-07-26T08:05:32.328Z,28.40
2018-07-26T08:08:00.752Z,28.60
2018-07-26T08:10:29.177Z,28.60
2018-07-26T08:12:57.587Z,28.70
2018-07-26T08:15:26.021Z,28.50
2018-07-26T08:17:54.433Z,28.40
2018-07-26T08:20:23.022Z,28.50
2018-07-26T08:22:51.532Z,28.60
2018-07-26T08:25:19.976Z,28.60
2018-07-26T08:27:48.595Z,28.80
2018-07-26T08:32:45.144Z,28.90
2018-07-26T08:37:41.711Z,29.40
2018-07-26T08:40:10.154Z,29.50
2018-07-26T08:42:38.612Z,29.70
2018-07-26T08:45:07.203Z,29.80
2018-07-26T08:47:35.607Z,30.00
2018-07-26T08:50:04.781Z,30.10
2018-07-26T08:52:33.464Z,30.20
2018-07-26T08:55:02.119Z,30.40
2018-07-26T08:57:30.675Z,30.80
2018-07-26T08:59:59.084Z,30.70
2018-07-26T09:02:27.576Z,30.80
2018-07-26T09:04:56.059Z,30.80
2018-07-26T09:07:24.501Z,30.90
2018-07-26T09:09:52.920Z,31.00
2018-07-26T09:12:21.345Z,31.20
2018-07-26T09:14:49.723Z,31.50
2018-07-26T09:17:18.151Z,31.70
2018-07-26T09:19:46.584Z,31.60
2018-07-26T09:22:15.082Z,31.70
2018-07-26T09:24:43.476Z,32.00
2018-07-26T09:27:13.097Z,32.00
2018-07-26T09:29:41.588Z,32.50
2018-07-26T09:32:10.256Z,32.80
2018-07-26T09:34:38.667Z,33.20
2018-07-26T09:37:07.133Z,34.20
2018-07-26T09:39:35.735Z,35.40
2018-07-26T09:42:04.257Z,36.40
2018-07-26T09:44:32.674Z,36.50
2018-07-26T09:47:01.108Z,36.30
2018-07-26T09:49:29.709Z,36.90
2018-07-26T09:51:58.117Z,37.10
2018-07-26T09:54:26.695Z,37.00
2018-07-26T09:56:55.147Z,36.50
2018-07-26T09:59:23.512Z,36.90
2018-07-26T10:01:52.133Z,37.00
2018-07-26T10:04:20.620Z,37.20
2018-07-26T10:06:49.066Z,37.10
2018-07-26T10:09:17.691Z,37.00
2018-07-26T10:11:46.127Z,36.40
2018-07-26T10:14:14.476Z,35.60
2018-07-26T10:16:43.199Z,35.40
2018-07-26T10:19:11.583Z,35.50
2018-07-26T10:21:40.011Z,35.80
2018-07-26T10:24:08.673Z,36.00
2018-07-26T10:26:37.056Z,35.70
2018-07-26T10:29:05.520Z,35.40
2018-07-26T10:31:34.216Z,35.60
2018-07-26T10:34:02.637Z,36.20
2018-07-26T10:36:31.024Z,37.20
2018-07-26T10:38:59.674Z,37.80
2018-07-26T10:41:28.192Z,38.40
2018-07-26T10:43:56.590Z,39.00
2018-07-26T10:46:25.312Z,39.50
2018-07-26T10:51:21.904Z,40.50
2018-07-26T10:53:50.292Z,39.90
2018-07-26T10:56:18.712Z,38.70
2018-07-26T10:58:47.393Z,38.20
2018-07-26T11:01:15.839Z,38.20
2018-07-26T11:03:44.267Z,37.70
2018-07-26T11:06:12.623Z,38.20
2018-07-26T11:08:41.053Z,39.30
2018-07-26T11:11:09.477Z,39.70
2018-07-26T11:13:37.853Z,38.90
2018-07-26T11:16:06.299Z,38.10
2018-07-26T11:18:34.680Z,37.70
2018-07-26T11:21:03.072Z,37.40
2018-07-26T11:23:31.530Z,37.80
2018-07-26T11:25:59.977Z,38.00
2018-07-26T11:28:28.452Z,37.80
2018-07-26T11:30:56.892Z,38.60
2018-07-26T11:33:25.276Z,38.90
2018-07-26T11:35:53.749Z,39.00
2018-07-26T11:38:22.100Z,39.10
2018-07-26T11:40:50.520Z,39.20
2018-07-26T11:43:18.961Z,39.20
2018-07-26T11:45:47.419Z,39.70
2018-07-26T11:48:15.823Z,39.00
2018-07-26T11:50:44.201Z,38.60
2018-07-26T11:53:12.606Z,39.40
2018-07-26T11:55:41.025Z,39.50
2018-07-26T11:58:09.468Z,39.60
2018-07-26T12:00:37.816Z,39.70
2018-07-26T12:03:06.447Z,39.90
2018-07-26T12:05:34.820Z,39.90
2018-07-26T12:08:03.286Z,39.20
2018-07-26T12:10:31.713Z,39.10
2018-07-26T12:13:00.078Z,39.10
2018-07-26T12:15:28.475Z,39.60
2018-07-26T12:17:56.982Z,39.90
2018-07-26T12:20:25.366Z,39.50
2018-07-26T12:22:54.107Z,39.10
2018-07-26T12:25:22.513Z,39.30
2018-07-26T12:27:50.897Z,39.20
2018-07-26T12:30:19.524Z,39.20
2018-07-26T12:32:47.925Z,38.50
2018-07-26T12:35:16.337Z,38.70
2018-07-26T12:37:44.740Z,39.00
2018-07-26T12:40:13.137Z,39.50
2018-07-26T12:42:41.522Z,39.20
2018-07-26T12:45:09.947Z,39.60
2018-07-26T12:47:38.496Z,39.40
2018-07-26T12:50:06.772Z,39.70
2018-07-26T12:52:35.192Z,40.00
2018-07-26T12:55:03.660Z,40.00
2018-07-26T12:57:32.141Z,39.80
2018-07-26T13:00:00.548Z,40.10
2018-07-26T13:02:29.133Z,39.60
2018-07-26T13:04:58.072Z,38.40
2018-07-26T13:07:26.480Z,38.00
2018-07-26T13:09:55.109Z,37.30
2018-07-26T13:12:23.562Z,36.90
2018-07-26T13:14:51.984Z,36.50
2018-07-26T13:17:20.398Z,36.70
2018-07-26T13:19:48.789Z,37.30
2018-07-26T13:22:17.204Z,37.70
2018-07-26T13:24:45.612Z,37.90
2018-07-26T13:27:14.004Z,38.10
2018-07-26T13:29:42.433Z,38.00
2018-07-26T13:32:10.849Z,38.00
2018-07-26T13:34:39.316Z,38.20
2018-07-26T13:37:07.740Z,38.40
2018-07-26T13:39:36.132Z,38.20
2018-07-26T13:42:04.706Z,38.40
2018-07-26T13:44:33.199Z,38.40
2018-07-26T13:47:01.610Z,37.40
2018-07-26T13:49:30.045Z,36.50
2018-07-26T13:51:58.456Z,36.00
2018-07-26T13:54:27.036Z,35.70
2018-07-26T13:56:55.436Z,36.00
2018-07-26T13:59:23.826Z,36.40
2018-07-26T14:01:52.264Z,36.90
2018-07-26T14:04:20.650Z,36.90
2018-07-26T14:06:49.048Z,37.10
2018-07-26T14:09:17.536Z,37.10
2018-07-26T14:11:45.949Z,37.40
2018-07-26T14:14:14.359Z,38.00
2018-07-26T14:16:42.767Z,38.40
2018-07-26T14:19:11.191Z,38.80
2018-07-26T14:21:39.584Z,38.50
2018-07-26T14:24:13.392Z,38.30
2018-07-26T14:26:41.816Z,38.00
2018-07-26T14:29:10.216Z,37.50
2018-07-26T14:31:38.847Z,37.30
2018-07-26T14:34:07.244Z,37.20
2018-07-26T14:36:35.650Z,36.90
2018-07-26T14:39:06.393Z,37.10
2018-07-26T14:41:34.801Z,36.90
2018-07-26T14:44:03.213Z,36.60
2018-07-26T14:46:31.617Z,36.10
2018-07-26T14:49:00.120Z,35.90
2018-07-26T14:51:28.560Z,35.80
2018-07-26T14:53:56.958Z,35.70
2018-07-26T14:56:25.377Z,35.60
2018-07-26T14:58:53.906Z,35.50
2018-07-26T15:03:50.432Z,35.50
2018-07-26T15:06:19.027Z,35.60
2018-07-26T15:08:48.131Z,35.70
2018-07-26T15:11:17.119Z,35.80
2018-07-26T15:13:45.736Z,35.70
2018-07-26T15:16:14.150Z,34.80
2018-07-26T15:18:42.904Z,34.40
2018-07-26T15:21:11.709Z,34.30
2018-07-26T15:23:40.161Z,34.50
2018-07-26T15:26:08.618Z,34.90
2018-07-26T15:28:36.956Z,35.20
2018-07-26T15:31:05.620Z,35.40
2018-07-26T15:33:34.043Z,35.30
2018-07-26T15:36:02.525Z,35.20
2018-07-26T15:38:30.908Z,35.10
2018-07-26T15:40:59.337Z,35.00
2018-07-26T15:43:28.457Z,35.10
2018-07-26T15:45:57.036Z,35.00
2018-07-26T15:48:25.420Z,34.90
2018-07-26T15:50:54.581Z,34.80
2018-07-26T15:53:22.976Z,34.80
2018-07-26T15:55:51.404Z,34.90
2018-07-26T15:58:19.807Z,34.90
2018-07-26T16:00:48.209Z,34.90
2018-07-26T16:03:16.668Z,34.80
2018-07-26T16:05:45.125Z,34.80
2018-07-26T16:08:13.583Z,34.80
2018-07-26T16:10:42.032Z,34.80
2018-07-26T16:13:10.436Z,34.80
2018-07-26T16:18:07.072Z,34.90
2018-07-26T16:20:35.466Z,34.80
2018-07-26T16:23:03.900Z,34.70
2018-07-26T16:25:32.441Z,34.50
2018-07-26T16:30:29.051Z,34.30
2018-07-26T16:32:57.494Z,34.20
2018-07-26T16:35:25.921Z,34.20
2018-07-26T16:37:55.321Z,34.00
2018-07-26T16:40:23.868Z,33.90
2018-07-26T16:42:52.344Z,33.80
2018-07-26T16:45:20.764Z,33.80
2018-07-26T16:47:49.198Z,33.70
2018-07-26T16:50:17.696Z,33.80
2018-07-26T16:52:46.194Z,33.80
2018-07-26T16:55:14.592Z,33.50
2018-07-26T16:57:43.062Z,33.40
2018-07-26T17:00:11.738Z,33.30
2018-07-26T17:02:40.248Z,33.10
2018-07-26T17:05:09.085Z,32.90
2018-07-26T17:07:38.028Z,32.50
2018-07-26T17:12:35.005Z,32.20
2018-07-26T17:15:03.433Z,32.10
2018-07-26T17:17:31.872Z,32.00
2018-07-26T17:20:00.327Z,31.90
2018-07-26T17:22:28.716Z,31.90
2018-07-26T17:24:57.174Z,31.80
2018-07-26T17:27:25.645Z,31.70
2018-07-26T17:29:55.951Z,31.60
2018-07-26T17:32:24.494Z,31.60
2018-07-26T17:34:52.977Z,31.40
2018-07-26T17:37:21.414Z,31.40
2018-07-26T17:39:49.877Z,31.40
2018-07-26T17:42:18.342Z,31.50
2018-07-26T17:44:46.819Z,31.40
2018-07-26T17:47:15.290Z,31.30
2018-07-26T17:49:43.715Z,31.20
2018-07-26T17:52:12.228Z,31.20
2018-07-26T17:54:40.729Z,31.30
2018-07-26T17:57:09.126Z,31.30
2018-07-26T17:59:37.540Z,31.30
2018-07-26T18:04:34.174Z,31.30
2018-07-26T18:07:02.622Z,31.20
2018-07-26T18:09:31.084Z,31.20
2018-07-26T18:11:59.510Z,31.20
2018-07-26T18:14:27.940Z,31.10
2018-07-26T18:16:56.770Z,31.00
2018-07-26T18:19:25.193Z,30.90
2018-07-26T18:21:53.608Z,30.80
2018-07-26T18:24:22.300Z,30.70
2018-07-26T18:26:50.824Z,30.70
2018-07-26T18:29:19.397Z,30.50
2018-07-26T18:34:16.155Z,30.40
2018-07-26T18:36:44.763Z,30.40
2018-07-26T18:39:13.886Z,30.40
2018-07-26T18:41:42.498Z,30.20
2018-07-26T18:44:11.076Z,30.20
2018-07-26T18:46:39.580Z,30.20
2018-07-26T18:49:09.215Z,30.10
2018-07-26T18:54:06.120Z,29.90
2018-07-26T18:56:34.688Z,29.80
2018-07-26T18:59:03.265Z,29.80
2018-07-26T19:01:31.764Z,29.70
2018-07-26T19:04:00.255Z,29.60
2018-07-26T19:06:28.718Z,29.50
2018-07-26T19:08:57.413Z,29.30
2018-07-26T19:11:25.831Z,29.10
2018-07-26T19:13:54.350Z,29.00
2018-07-26T19:16:22.871Z,28.90
2018-07-26T19:18:51.276Z,28.80
2018-07-26T19:21:19.751Z,28.70
2018-07-26T19:23:48.469Z,28.50
2018-07-26T19:26:17.059Z,28.50
2018-07-26T19:28:45.478Z,28.30
2018-07-26T19:31:14.241Z,28.20
2018-07-26T19:33:42.725Z,28.10
2018-07-26T19:36:11.194Z,28.10
2018-07-26T19:38:39.601Z,28.00
2018-07-26T19:41:08.105Z,28.00
2018-07-26T19:48:32.841Z,28.00
2018-07-26T19:51:01.501Z,28.00
2018-07-26T19:53:29.962Z,28.10
2018-07-26T19:55:58.385Z,27.90
2018-07-26T19:58:26.828Z,27.90
2018-07-26T20:00:55.318Z,27.70
2018-07-26T20:03:23.907Z,27.60
2018-07-26T20:05:52.364Z,27.40
2018-07-26T20:08:20.905Z,27.40
2018-07-26T20:10:49.384Z,27.30
2018-07-26T20:13:17.873Z,27.30
2018-07-26T20:15:46.368Z,27.20
2018-07-26T20:18:14.853Z,27.10
2018-07-26T20:20:43.254Z,27.00
2018-07-26T20:23:11.802Z,26.80
2018-07-26T20:25:45.052Z,26.60
2018-07-26T20:28:13.677Z,26.60
2018-07-26T20:30:42.204Z,26.50
2018-07-26T20:33:11.380Z,26.40
2018-07-26T20:35:39.808Z,26.40
2018-07-26T20:38:09.282Z,26.30
2018-07-26T20:40:37.712Z,26.20
2018-07-26T20:43:06.536Z,26.10
2018-07-26T20:45:35.340Z,26.10
2018-07-26T20:48:03.795Z,25.90
2018-07-26T20:50:32.316Z,25.90
2018-07-26T20:53:00.752Z,25.90
2018-07-26T20:55:29.265Z,25.90
2018-07-26T20:57:57.719Z,25.70
2018-07-26T21:00:26.147Z,25.50
2018-07-26T21:02:54.656Z,25.40
2018-07-26T21:05:23.162Z,25.40
2018-07-26T21:07:51.532Z,25.40
2018-07-26T21:10:20.061Z,25.40
2018-07-26T21:12:48.516Z,25.40
2018-07-26T21:15:16.933Z,25.40
2018-07-26T21:17:45.455Z,25.30
2018-07-26T21:20:13.939Z,25.30
2018-07-26T21:22:42.363Z,25.20
2018-07-26T21:25:10.785Z,25.20
2018-07-26T21:27:39.496Z,25.10
2018-07-26T21:30:08.164Z,25.10
2018-07-26T21:32:36.860Z,25.10
2018-07-26T21:35:06.418Z,25.10
2018-07-26T21:37:34.802Z,25.10
2018-07-26T21:40:03.273Z,25.20
2018-07-26T21:42:31.795Z,25.40
2018-07-26T21:45:00.213Z,25.40
2018-07-26T21:47:28.706Z,25.60
2018-07-26T21:49:57.108Z,25.70
2018-07-26T21:52:25.540Z,25.70
2018-07-26T21:54:54.172Z,25.80
2018-07-26T21:57:22.764Z,25.90
2018-07-26T21:59:51.165Z,25.80
2018-07-26T22:02:19.649Z,25.70
2018-07-26T22:04:48.071Z,25.80
2018-07-26T22:07:16.473Z,25.70
2018-07-26T22:09:44.872Z,25.50
2018-07-26T22:12:13.293Z,25.50
2018-07-26T22:17:09.849Z,25.40
2018-07-26T22:19:38.308Z,25.40
2018-07-26T22:22:07.010Z,25.40
2018-07-26T22:24:35.365Z,25.50
2018-07-26T22:27:03.764Z,25.50
2018-07-26T22:29:32.165Z,25.50
2018-07-26T22:32:00.677Z,25.50
2018-07-26T22:34:29.297Z,25.50
2018-07-26T22:36:57.702Z,25.40
2018-07-26T22:39:26.481Z,25.40
2018-07-26T22:41:54.856Z,25.50
2018-07-26T22:44:23.324Z,25.40
2018-07-26T22:49:20.088Z,25.50
2018-07-26T22:51:48.512Z,25.60
2018-07-26T22:54:16.915Z,25.60
2018-07-26T22:56:45.323Z,25.60
2018-07-26T22:59:13.725Z,25.60
2018-07-26T23:01:42.339Z,25.60
2018-07-26T23:04:10.749Z,25.60
2018-07-26T23:06:39.136Z,25.70
2018-07-26T23:09:09.216Z,25.80
2018-07-26T23:11:37.632Z,25.90
2018-07-26T23:14:06.302Z,26.10
2018-07-26T23:16:34.712Z,26.20
2018-07-26T23:19:03.116Z,26.30
2018-07-26T23:21:31.617Z,26.40
2018-07-26T23:24:00.064Z,26.40
2018-07-26T23:26:28.461Z,26.50
2018-07-26T23:28:56.899Z,26.50
2018-07-26T23:31:25.323Z,26.50
2018-07-26T23:33:53.753Z,26.40
2018-07-26T23:36:22.182Z,26.50
2018-07-26T23:38:50.584Z,26.40
2018-07-26T23:41:19.021Z,26.40
2018-07-26T23:43:47.428Z,26.40
2018-07-26T23:46:16.001Z,26.30
2018-07-26T23:48:44.440Z,26.20
2018-07-26T23:51:12.849Z,26.00
2018-07-26T23:53:41.244Z,25.80
2018-07-26T23:56:09.620Z,25.70
2018-07-26T23:58:38.048Z,25.60
